sensor_id;sensor_type;location;lat;lon;timestamp;pressure;altitude;pressure_sealevel;temperature;humidity
29815;BME280;16708;50.426;7.664;2023-02-18T00:04:37;994.55;;;9.63;100.00
29815;BME280;16708;50.426;7.664;2023-02-18T00:09:31;994.72;;;9.62;100.00
29815;BME280;16708;50.426;7.664;2023-02-18T00:14:24;994.64;;;9.60;100.00
29815;BME280;16708;50.426;7.664;2023-02-18T00:19:18;994.65;;;9.56;100.00
29815;BME280;16708;50.426;7.664;2023-02-18T00:24:12;994.83;;;9.54;100.00
29815;BME280;16708;50.426;7.664;2023-02-18T00:29:06;994.92;;;9.68;100.00
29815;BME280;16708;50.426;7.664;2023-02-18T00:34:00;994.91;;;9.67;100.00
29815;BME280;16708;50.426;7.664;2023-02-18T00:38:53;994.83;;;9.68;100.00
29815;BME280;16708;50.426;7.664;2023-02-18T00:43:46;994.75;;;9.68;100.00
29815;BME280;16708;50.426;7.664;2023-02-18T00:48:41;994.72;;;9.68;100.00
29815;BME280;16708;50.426;7.664;2023-02-18T00:53:34;994.75;;;9.74;100.00
29815;BME280;16708;50.426;7.664;2023-02-18T00:58:28;994.63;;;9.72;100.00
29815;BME280;16708;50.426;7.664;2023-02-18T01:03:23;994.50;;;9.69;100.00
29815;BME280;16708;50.426;7.664;2023-02-18T01:08:17;994.68;;;9.67;100.00
29815;BME280;16708;50.426;7.664;2023-02-18T01:13:10;994.65;;;9.66;100.00
29815;BME280;16708;50.426;7.664;2023-02-18T01:18:03;994.48;;;9.63;100.00
29815;BME280;16708;50.426;7.664;2023-02-18T01:22:57;994.45;;;9.59;100.00
29815;BME280;16708;50.426;7.664;2023-02-18T01:27:51;994.38;;;9.65;100.00
29815;BME280;16708;50.426;7.664;2023-02-18T01:32:44;994.35;;;9.65;100.00
29815;BME280;16708;50.426;7.664;2023-02-18T01:37:37;994.20;;;9.68;100.00
29815;BME280;16708;50.426;7.664;2023-02-18T01:47:25;994.05;;;9.86;100.00
29815;BME280;16708;50.426;7.664;2023-02-18T01:52:19;994.12;;;9.87;100.00
29815;BME280;16708;50.426;7.664;2023-02-18T01:57:12;994.03;;;9.85;100.00
29815;BME280;16708;50.426;7.664;2023-02-18T02:02:06;994.07;;;9.74;100.00
29815;BME280;16708;50.426;7.664;2023-02-18T02:06:56;993.95;;;9.67;100.00
29815;BME280;16708;50.426;7.664;2023-02-18T02:31:24;993.78;;;9.32;100.00
29815;BME280;16708;50.426;7.664;2023-02-18T02:36:17;993.77;;;9.33;100.00
29815;BME280;16708;50.426;7.664;2023-02-18T02:41:11;993.78;;;9.30;100.00
29815;BME280;16708;50.426;7.664;2023-02-18T02:46:04;993.73;;;9.32;100.00
29815;BME280;16708;50.426;7.664;2023-02-18T02:50:58;993.75;;;9.33;100.00
29815;BME280;16708;50.426;7.664;2023-02-18T02:55:52;993.61;;;9.34;100.00
29815;BME280;16708;50.426;7.664;2023-02-18T03:10:31;993.48;;;9.34;100.00
29815;BME280;16708;50.426;7.664;2023-02-18T03:15:23;993.33;;;9.39;100.00
29815;BME280;16708;50.426;7.664;2023-02-18T03:20:17;993.29;;;9.37;100.00
29815;BME280;16708;50.426;7.664;2023-02-18T03:25:11;993.38;;;9.42;100.00
29815;BME280;16708;50.426;7.664;2023-02-18T03:30:05;993.23;;;9.44;100.00
29815;BME280;16708;50.426;7.664;2023-02-18T03:34:59;993.12;;;9.47;100.00
29815;BME280;16708;50.426;7.664;2023-02-18T03:39:54;993.09;;;9.50;100.00
29815;BME280;16708;50.426;7.664;2023-02-18T03:44:47;993.15;;;9.49;100.00
29815;BME280;16708;50.426;7.664;2023-02-18T03:49:41;993.10;;;9.48;100.00
29815;BME280;16708;50.426;7.664;2023-02-18T03:54:34;993.13;;;9.56;100.00
29815;BME280;16708;50.426;7.664;2023-02-18T03:59:28;993.03;;;9.50;100.00
29815;BME280;16708;50.426;7.664;2023-02-18T04:04:22;992.97;;;9.48;100.00
29815;BME280;16708;50.426;7.664;2023-02-18T04:09:16;992.98;;;9.43;100.00
29815;BME280;16708;50.426;7.664;2023-02-18T04:14:09;993.03;;;9.45;100.00
29815;BME280;16708;50.426;7.664;2023-02-18T04:19:03;993.03;;;9.43;100.00
29815;BME280;16708;50.426;7.664;2023-02-18T04:23:57;992.97;;;9.49;100.00
29815;BME280;16708;50.426;7.664;2023-02-18T04:28:52;992.88;;;9.47;100.00
29815;BME280;16708;50.426;7.664;2023-02-18T04:33:46;992.80;;;9.47;100.00
29815;BME280;16708;50.426;7.664;2023-02-18T04:38:40;992.87;;;9.48;100.00
29815;BME280;16708;50.426;7.664;2023-02-18T04:43:30;992.91;;;9.46;100.00
29815;BME280;16708;50.426;7.664;2023-02-18T04:48:22;992.86;;;9.46;100.00
29815;BME280;16708;50.426;7.664;2023-02-18T04:53:15;992.84;;;9.43;100.00
29815;BME280;16708;50.426;7.664;2023-02-18T04:58:10;992.63;;;9.39;100.00
29815;BME280;16708;50.426;7.664;2023-02-18T05:03:04;992.57;;;9.40;100.00
29815;BME280;16708;50.426;7.664;2023-02-18T05:07:58;992.57;;;9.39;100.00
29815;BME280;16708;50.426;7.664;2023-02-18T05:12:51;992.54;;;9.33;100.00
29815;BME280;16708;50.426;7.664;2023-02-18T05:17:45;992.57;;;9.31;100.00
29815;BME280;16708;50.426;7.664;2023-02-18T05:22:38;992.46;;;9.27;100.00
29815;BME280;16708;50.426;7.664;2023-02-18T05:27:32;992.46;;;9.23;100.00
29815;BME280;16708;50.426;7.664;2023-02-18T05:32:27;992.51;;;9.20;100.00
29815;BME280;16708;50.426;7.664;2023-02-18T05:37:20;992.32;;;9.18;100.00
29815;BME280;16708;50.426;7.664;2023-02-18T05:42:14;992.29;;;9.18;100.00
29815;BME280;16708;50.426;7.664;2023-02-18T05:47:08;992.28;;;9.17;100.00
29815;BME280;16708;50.426;7.664;2023-02-18T05:52:02;992.13;;;9.17;100.00
29815;BME280;16708;50.426;7.664;2023-02-18T05:56:56;992.12;;;9.20;100.00
29815;BME280;16708;50.426;7.664;2023-02-18T06:01:50;992.15;;;9.19;100.00
29815;BME280;16708;50.426;7.664;2023-02-18T06:06:43;992.08;;;9.19;100.00
29815;BME280;16708;50.426;7.664;2023-02-18T06:11:37;992.25;;;9.18;100.00
29815;BME280;16708;50.426;7.664;2023-02-18T06:16:28;992.22;;;9.16;100.00
29815;BME280;16708;50.426;7.664;2023-02-18T06:21:22;992.22;;;9.14;100.00
29815;BME280;16708;50.426;7.664;2023-02-18T06:26:16;992.17;;;9.09;100.00
29815;BME280;16708;50.426;7.664;2023-02-18T06:31:10;992.16;;;9.06;100.00
29815;BME280;16708;50.426;7.664;2023-02-18T06:36:04;992.09;;;9.02;100.00
29815;BME280;16708;50.426;7.664;2023-02-18T06:40:58;992.03;;;8.92;100.00
29815;BME280;16708;50.426;7.664;2023-02-18T06:45:52;991.96;;;8.88;100.00
29815;BME280;16708;50.426;7.664;2023-02-18T06:50:46;991.98;;;8.96;100.00
29815;BME280;16708;50.426;7.664;2023-02-18T06:55:39;991.97;;;9.01;100.00
29815;BME280;16708;50.426;7.664;2023-02-18T07:00:32;991.97;;;9.04;100.00
29815;BME280;16708;50.426;7.664;2023-02-18T07:05:26;991.89;;;9.13;100.00
29815;BME280;16708;50.426;7.664;2023-02-18T07:10:20;991.86;;;9.18;100.00
29815;BME280;16708;50.426;7.664;2023-02-18T07:15:14;991.83;;;9.23;100.00
29815;BME280;16708;50.426;7.664;2023-02-18T07:20:09;991.87;;;9.30;100.00
29815;BME280;16708;50.426;7.664;2023-02-18T07:25:00;991.90;;;9.32;100.00
29815;BME280;16708;50.426;7.664;2023-02-18T07:29:53;991.92;;;9.33;100.00
29815;BME280;16708;50.426;7.664;2023-02-18T07:34:46;991.81;;;9.45;100.00
29815;BME280;16708;50.426;7.664;2023-02-18T07:39:40;991.67;;;9.31;100.00
29815;BME280;16708;50.426;7.664;2023-02-18T07:44:34;991.87;;;9.26;100.00
29815;BME280;16708;50.426;7.664;2023-02-18T07:49:28;991.84;;;9.30;100.00
29815;BME280;16708;50.426;7.664;2023-02-18T07:54:26;991.91;;;9.36;100.00
29815;BME280;16708;50.426;7.664;2023-02-18T07:59:16;991.89;;;9.31;100.00
29815;BME280;16708;50.426;7.664;2023-02-18T08:04:09;992.12;;;9.53;100.00
29815;BME280;16708;50.426;7.664;2023-02-18T08:09:03;992.08;;;9.30;100.00
29815;BME280;16708;50.426;7.664;2023-02-18T08:13:58;992.13;;;9.36;100.00
29815;BME280;16708;50.426;7.664;2023-02-18T08:18:51;992.19;;;9.55;100.00
29815;BME280;16708;50.426;7.664;2023-02-18T08:23:45;992.00;;;9.72;100.00
29815;BME280;16708;50.426;7.664;2023-02-18T08:28:39;992.08;;;9.69;100.00
29815;BME280;16708;50.426;7.664;2023-02-18T08:33:33;992.05;;;9.72;100.00
29815;BME280;16708;50.426;7.664;2023-02-18T08:38:28;992.16;;;9.39;100.00
29815;BME280;16708;50.426;7.664;2023-02-18T08:43:22;992.07;;;9.34;100.00
29815;BME280;16708;50.426;7.664;2023-02-18T08:48:14;992.00;;;9.58;100.00
29815;BME280;16708;50.426;7.664;2023-02-18T08:53:09;992.12;;;9.43;100.00
29815;BME280;16708;50.426;7.664;2023-02-18T08:58:03;992.02;;;9.53;100.00
29815;BME280;16708;50.426;7.664;2023-02-18T09:02:57;992.05;;;9.64;100.00
29815;BME280;16708;50.426;7.664;2023-02-18T09:07:51;992.13;;;9.85;100.00
29815;BME280;16708;50.426;7.664;2023-02-18T09:12:45;992.12;;;9.92;100.00
29815;BME280;16708;50.426;7.664;2023-02-18T09:17:39;992.27;;;10.00;100.00
29815;BME280;16708;50.426;7.664;2023-02-18T09:22:33;992.40;;;9.96;100.00
29815;BME280;16708;50.426;7.664;2023-02-18T09:27:27;992.32;;;10.04;100.00
29815;BME280;16708;50.426;7.664;2023-02-18T09:32:21;992.51;;;10.11;100.00
29815;BME280;16708;50.426;7.664;2023-02-18T09:37:15;992.47;;;10.04;100.00
29815;BME280;16708;50.426;7.664;2023-02-18T09:42:11;992.42;;;9.94;100.00
29815;BME280;16708;50.426;7.664;2023-02-18T09:47:03;992.40;;;9.92;100.00
29815;BME280;16708;50.426;7.664;2023-02-18T09:56:51;992.30;;;10.20;100.00
29815;BME280;16708;50.426;7.664;2023-02-18T10:01:46;992.29;;;10.20;100.00
29815;BME280;16708;50.426;7.664;2023-02-18T10:06:40;992.32;;;10.22;100.00
29815;BME280;16708;50.426;7.664;2023-02-18T10:11:32;992.26;;;10.35;100.00
29815;BME280;16708;50.426;7.664;2023-02-18T10:16:27;992.23;;;10.30;100.00
29815;BME280;16708;50.426;7.664;2023-02-18T10:21:21;992.24;;;10.28;100.00
29815;BME280;16708;50.426;7.664;2023-02-18T10:31:07;992.07;;;10.15;100.00
29815;BME280;16708;50.426;7.664;2023-02-18T10:45:49;992.12;;;10.12;100.00
29815;BME280;16708;50.426;7.664;2023-02-18T10:50:43;992.11;;;10.13;100.00
29815;BME280;16708;50.426;7.664;2023-02-18T11:00:33;992.09;;;9.98;100.00
29815;BME280;16708;50.426;7.664;2023-02-18T11:10:19;992.12;;;9.99;100.00
29815;BME280;16708;50.426;7.664;2023-02-18T11:15:12;992.10;;;10.01;100.00
29815;BME280;16708;50.426;7.664;2023-02-18T11:20:07;991.90;;;9.69;100.00
29815;BME280;16708;50.426;7.664;2023-02-18T11:25:02;991.83;;;9.68;100.00
29815;BME280;16708;50.426;7.664;2023-02-18T11:34:48;991.78;;;9.69;100.00
29815;BME280;16708;50.426;7.664;2023-02-18T11:39:42;991.74;;;9.83;100.00
29815;BME280;16708;50.426;7.664;2023-02-18T11:44:36;991.70;;;9.83;100.00
29815;BME280;16708;50.426;7.664;2023-02-18T11:54:24;991.82;;;9.87;100.00
29815;BME280;16708;50.426;7.664;2023-02-18T11:59:19;991.74;;;9.91;100.00
29815;BME280;16708;50.426;7.664;2023-02-18T12:04:13;991.78;;;9.79;100.00
29815;BME280;16708;50.426;7.664;2023-02-18T12:09:06;991.82;;;9.30;100.00
29815;BME280;16708;50.426;7.664;2023-02-18T12:14:00;991.75;;;8.87;100.00
29815;BME280;16708;50.426;7.664;2023-02-18T13:02:56;991.84;;;8.57;100.00
29815;BME280;16708;50.426;7.664;2023-02-18T13:12:46;991.87;;;8.63;100.00
29815;BME280;16708;50.426;7.664;2023-02-18T13:17:39;991.86;;;8.62;100.00
29815;BME280;16708;50.426;7.664;2023-02-18T13:22:34;991.87;;;8.61;100.00
29815;BME280;16708;50.426;7.664;2023-02-18T13:32:21;991.82;;;8.64;100.00
29815;BME280;16708;50.426;7.664;2023-02-18T13:37:15;991.80;;;8.60;100.00
29815;BME280;16708;50.426;7.664;2023-02-18T13:51:58;991.94;;;8.54;100.00
29815;BME280;16708;50.426;7.664;2023-02-18T13:56:52;992.00;;;8.47;100.00
29815;BME280;16708;50.426;7.664;2023-02-18T14:06:43;991.95;;;8.50;100.00
29815;BME280;16708;50.426;7.664;2023-02-18T14:21:21;991.93;;;8.49;100.00
29815;BME280;16708;50.426;7.664;2023-02-18T14:26:15;991.91;;;8.45;100.00
29815;BME280;16708;50.426;7.664;2023-02-18T14:45:50;991.74;;;8.58;100.00
29815;BME280;16708;50.426;7.664;2023-02-18T14:50:43;991.72;;;8.53;100.00
29815;BME280;16708;50.426;7.664;2023-02-18T14:55:37;991.85;;;8.56;100.00
29815;BME280;16708;50.426;7.664;2023-02-18T15:05:25;991.71;;;8.64;100.00
29815;BME280;16708;50.426;7.664;2023-02-18T15:10:20;991.73;;;8.62;100.00
29815;BME280;16708;50.426;7.664;2023-02-18T15:15:14;991.71;;;8.57;100.00
29815;BME280;16708;50.426;7.664;2023-02-18T15:20:09;991.71;;;8.61;100.00
29815;BME280;16708;50.426;7.664;2023-02-18T15:34:51;991.65;;;8.58;100.00
29815;BME280;16708;50.426;7.664;2023-02-18T15:39:45;991.67;;;8.57;100.00
29815;BME280;16708;50.426;7.664;2023-02-18T15:44:40;991.69;;;8.56;100.00
29815;BME280;16708;50.426;7.664;2023-02-18T15:49:32;991.62;;;8.54;100.00
29815;BME280;16708;50.426;7.664;2023-02-18T15:54:26;991.56;;;8.55;100.00
29815;BME280;16708;50.426;7.664;2023-02-18T15:59:20;991.63;;;8.57;100.00
29815;BME280;16708;50.426;7.664;2023-02-18T16:14:03;991.54;;;8.60;100.00
29815;BME280;16708;50.426;7.664;2023-02-18T16:23:51;991.47;;;8.73;100.00
29815;BME280;16708;50.426;7.664;2023-02-18T16:28:45;991.50;;;8.67;100.00
29815;BME280;16708;50.426;7.664;2023-02-18T16:33:39;991.53;;;8.69;100.00
29815;BME280;16708;50.426;7.664;2023-02-18T16:38:33;991.55;;;8.67;100.00
29815;BME280;16708;50.426;7.664;2023-02-18T16:43:27;991.51;;;8.67;100.00
29815;BME280;16708;50.426;7.664;2023-02-18T16:48:21;991.51;;;8.61;100.00
29815;BME280;16708;50.426;7.664;2023-02-18T16:53:15;991.55;;;8.57;100.00
29815;BME280;16708;50.426;7.664;2023-02-18T16:58:09;991.56;;;8.61;100.00
29815;BME280;16708;50.426;7.664;2023-02-18T17:03:02;991.65;;;8.58;100.00
29815;BME280;16708;50.426;7.664;2023-02-18T17:07:57;991.68;;;8.51;100.00
29815;BME280;16708;50.426;7.664;2023-02-18T17:12:50;991.76;;;8.48;100.00
29815;BME280;16708;50.426;7.664;2023-02-18T17:17:44;991.67;;;8.47;100.00
29815;BME280;16708;50.426;7.664;2023-02-18T17:22:38;991.85;;;8.44;100.00
29815;BME280;16708;50.426;7.664;2023-02-18T17:27:32;991.88;;;8.43;100.00
29815;BME280;16708;50.426;7.664;2023-02-18T17:32:26;991.89;;;8.45;100.00
29815;BME280;16708;50.426;7.664;2023-02-18T17:37:20;991.90;;;8.49;100.00
29815;BME280;16708;50.426;7.664;2023-02-18T17:42:14;992.02;;;8.41;100.00
29815;BME280;16708;50.426;7.664;2023-02-18T17:47:08;992.07;;;8.37;100.00
29815;BME280;16708;50.426;7.664;2023-02-18T17:56:54;992.11;;;8.31;100.00
29815;BME280;16708;50.426;7.664;2023-02-18T18:01:48;992.13;;;8.27;100.00
29815;BME280;16708;50.426;7.664;2023-02-18T18:06:42;992.17;;;8.22;100.00
29815;BME280;16708;50.426;7.664;2023-02-18T18:16:32;992.13;;;8.17;100.00
29815;BME280;16708;50.426;7.664;2023-02-18T18:26:15;992.08;;;8.10;100.00
29815;BME280;16708;50.426;7.664;2023-02-18T18:31:09;992.10;;;8.09;100.00
29815;BME280;16708;50.426;7.664;2023-02-18T18:36:02;992.09;;;8.08;100.00
29815;BME280;16708;50.426;7.664;2023-02-18T18:40:56;992.02;;;8.12;100.00
29815;BME280;16708;50.426;7.664;2023-02-18T18:45:50;992.09;;;8.10;100.00
29815;BME280;16708;50.426;7.664;2023-02-18T18:50:44;992.15;;;8.11;100.00
29815;BME280;16708;50.426;7.664;2023-02-18T18:55:38;992.10;;;8.06;100.00
29815;BME280;16708;50.426;7.664;2023-02-18T19:00:31;992.09;;;8.06;100.00
29815;BME280;16708;50.426;7.664;2023-02-18T19:05:25;992.05;;;8.06;100.00
29815;BME280;16708;50.426;7.664;2023-02-18T19:10:18;992.08;;;8.03;100.00
29815;BME280;16708;50.426;7.664;2023-02-18T19:15:11;992.09;;;8.03;100.00
29815;BME280;16708;50.426;7.664;2023-02-18T19:20:06;992.09;;;8.07;100.00
29815;BME280;16708;50.426;7.664;2023-02-18T19:24:59;992.04;;;8.08;100.00
29815;BME280;16708;50.426;7.664;2023-02-18T19:29:52;992.03;;;8.10;100.00
29815;BME280;16708;50.426;7.664;2023-02-18T19:34:46;991.97;;;8.11;100.00
29815;BME280;16708;50.426;7.664;2023-02-18T19:39:40;992.02;;;8.09;100.00
29815;BME280;16708;50.426;7.664;2023-02-18T19:44:34;992.03;;;8.11;100.00
29815;BME280;16708;50.426;7.664;2023-02-18T19:49:27;992.08;;;8.10;100.00
29815;BME280;16708;50.426;7.664;2023-02-18T19:54:21;991.91;;;8.05;100.00
29815;BME280;16708;50.426;7.664;2023-02-18T19:59:15;991.84;;;8.03;100.00
29815;BME280;16708;50.426;7.664;2023-02-18T20:04:09;991.89;;;8.02;100.00
29815;BME280;16708;50.426;7.664;2023-02-18T20:09:03;992.07;;;8.05;100.00
29815;BME280;16708;50.426;7.664;2023-02-18T20:13:57;991.94;;;8.05;100.00
29815;BME280;16708;50.426;7.664;2023-02-18T20:18:50;991.87;;;8.07;100.00
29815;BME280;16708;50.426;7.664;2023-02-18T20:23:44;991.83;;;8.06;100.00
29815;BME280;16708;50.426;7.664;2023-02-18T20:28:38;991.74;;;8.12;100.00
29815;BME280;16708;50.426;7.664;2023-02-18T20:33:32;991.79;;;8.11;100.00
29815;BME280;16708;50.426;7.664;2023-02-18T20:38:25;991.66;;;8.11;100.00
29815;BME280;16708;50.426;7.664;2023-02-18T20:43:19;991.67;;;8.16;100.00
29815;BME280;16708;50.426;7.664;2023-02-18T20:48:13;991.61;;;8.19;100.00
29815;BME280;16708;50.426;7.664;2023-02-18T20:53:07;991.51;;;8.17;100.00
29815;BME280;16708;50.426;7.664;2023-02-18T20:58:01;991.39;;;8.16;100.00
29815;BME280;16708;50.426;7.664;2023-02-18T21:02:55;991.43;;;8.20;100.00
29815;BME280;16708;50.426;7.664;2023-02-18T21:07:48;991.48;;;8.20;100.00
29815;BME280;16708;50.426;7.664;2023-02-18T21:12:41;991.48;;;8.25;100.00
29815;BME280;16708;50.426;7.664;2023-02-18T21:17:36;991.35;;;8.23;100.00
29815;BME280;16708;50.426;7.664;2023-02-18T21:22:34;991.40;;;8.23;100.00
29815;BME280;16708;50.426;7.664;2023-02-18T21:27:24;991.26;;;8.22;100.00
29815;BME280;16708;50.426;7.664;2023-02-18T21:32:17;991.30;;;8.19;100.00
29815;BME280;16708;50.426;7.664;2023-02-18T21:37:11;991.22;;;8.20;100.00
29815;BME280;16708;50.426;7.664;2023-02-18T21:42:05;991.19;;;8.18;100.00
29815;BME280;16708;50.426;7.664;2023-02-18T21:47:00;991.11;;;8.44;100.00
29815;BME280;16708;50.426;7.664;2023-02-18T21:51:52;990.96;;;8.25;100.00
29815;BME280;16708;50.426;7.664;2023-02-18T21:56:46;991.08;;;8.21;100.00
29815;BME280;16708;50.426;7.664;2023-02-18T22:01:40;991.00;;;8.24;100.00
29815;BME280;16708;50.426;7.664;2023-02-18T22:06:34;991.00;;;8.28;100.00
29815;BME280;16708;50.426;7.664;2023-02-18T22:11:28;991.01;;;8.25;100.00
29815;BME280;16708;50.426;7.664;2023-02-18T22:16:19;990.96;;;8.27;100.00
29815;BME280;16708;50.426;7.664;2023-02-18T22:21:12;990.95;;;8.24;100.00
29815;BME280;16708;50.426;7.664;2023-02-18T22:26:06;990.89;;;8.21;100.00
29815;BME280;16708;50.426;7.664;2023-02-18T22:31:00;990.98;;;8.23;100.00
29815;BME280;16708;50.426;7.664;2023-02-18T22:35:51;990.89;;;8.24;100.00
29815;BME280;16708;50.426;7.664;2023-02-18T22:40:44;990.86;;;8.25;100.00
29815;BME280;16708;50.426;7.664;2023-02-18T22:45:39;990.78;;;8.25;100.00
29815;BME280;16708;50.426;7.664;2023-02-18T22:50:33;990.84;;;8.27;100.00
29815;BME280;16708;50.426;7.664;2023-02-18T22:55:28;990.79;;;8.30;100.00
29815;BME280;16708;50.426;7.664;2023-02-18T23:00:24;990.72;;;8.23;100.00
29815;BME280;16708;50.426;7.664;2023-02-18T23:05:13;990.75;;;8.22;100.00
29815;BME280;16708;50.426;7.664;2023-02-18T23:10:10;990.68;;;8.27;100.00
29815;BME280;16708;50.426;7.664;2023-02-18T23:15:02;990.62;;;8.26;100.00
29815;BME280;16708;50.426;7.664;2023-02-18T23:19:56;990.69;;;8.23;100.00
29815;BME280;16708;50.426;7.664;2023-02-18T23:24:50;990.59;;;8.26;100.00
29815;BME280;16708;50.426;7.664;2023-02-18T23:29:44;990.55;;;8.29;100.00
29815;BME280;16708;50.426;7.664;2023-02-18T23:34:40;990.38;;;8.28;100.00
29815;BME280;16708;50.426;7.664;2023-02-18T23:39:30;990.35;;;8.29;100.00
29815;BME280;16708;50.426;7.664;2023-02-18T23:44:24;990.42;;;8.27;100.00
29815;BME280;16708;50.426;7.664;2023-02-18T23:49:18;990.31;;;8.25;100.00
29815;BME280;16708;50.426;7.664;2023-02-18T23:54:09;990.44;;;8.22;100.00
29815;BME280;16708;50.426;7.664;2023-02-18T23:59:03;990.62;;;8.22;100.00
